KAL9253 KDFW-KLAX
Flight info
| Callsign | KAL9253 |
|---|---|
| Flight time | N/A |
| Altitude | 34000 |
| Route | KATZZ2 BRHMA CNX ONM SJN DRK J231 HIPPI GABBL HLYWD1 |
| Aircraft | B77L/H-SDE1E2E3FGHIJ2J3J4J5M1RWXY/LB1D1 |
Departure
| Time | N/A |
|---|---|
| Airport | Dallas Fort Worth International Airport (KDFW) |
Arrival
| Time | 2026-05-04 07:49 |
|---|---|
| Airport | Los Angeles International Airport (KLAX) |
| Time | Latitude | Longitude | Altitude | Speed | Heading |
|---|---|---|---|---|---|
| 2026-05-04 07:44 | 33.88538 | -118.16410 | 3002 ft | 264 kts | 11° |
| 2026-05-04 07:44 | 33.90351 | -118.16402 | 3008 ft | 261 kts | 342° |
| 2026-05-04 07:44 | 33.92007 | -118.17260 | 3016 ft | 260 kts | 330° |
| 2026-05-04 07:45 | 33.93581 | -118.18345 | 2998 ft | 259 kts | 326° |
| 2026-05-04 07:45 | 33.94810 | -118.19797 | 2986 ft | 245 kts | 297° |
| 2026-05-04 07:45 | 33.95229 | -118.21676 | 2899 ft | 226 kts | 271° |
| 2026-05-04 07:45 | 33.95213 | -118.23553 | 2567 ft | 221 kts | 266° |
| 2026-05-04 07:46 | 33.95063 | -118.25349 | 2306 ft | 207 kts | 263° |
| 2026-05-04 07:46 | 33.94888 | -118.27000 | 2036 ft | 189 kts | 263° |
| 2026-05-04 07:46 | 33.94733 | -118.28491 | 1761 ft | 174 kts | 263° |
| 2026-05-04 07:46 | 33.94592 | -118.29872 | 1529 ft | 158 kts | 263° |
| 2026-05-04 07:47 | 33.94464 | -118.31123 | 1329 ft | 144 kts | 263° |
| 2026-05-04 07:47 | 33.94338 | -118.32362 | 1150 ft | 152 kts | 263° |
| 2026-05-04 07:47 | 33.94209 | -118.33632 | 925 ft | 153 kts | 264° |
| 2026-05-04 07:49 | 33.93494 | -118.40640 | 115 ft | 19 kts | 263° |
| 2026-05-04 07:49 | 33.93449 | -118.40724 | 110 ft | 12 kts | 194° |
| 2026-05-04 07:49 | 33.93377 | -118.40681 | 107 ft | 12 kts | 118° |
| 2026-05-04 07:50 | 33.93378 | -118.40575 | 107 ft | 13 kts | 83° |
| 2026-05-04 07:50 | 33.93389 | -118.40466 | 108 ft | 13 kts | 82° |
| 2026-05-04 07:50 | 33.93401 | -118.40354 | 105 ft | 16 kts | 83° |
| 2026-05-04 07:50 | 33.93418 | -118.40193 | 105 ft | 20 kts | 82° |
| 2026-05-04 07:51 | 33.93435 | -118.40027 | 108 ft | 20 kts | 83° |
| 2026-05-04 07:51 | 33.93451 | -118.39860 | 107 ft | 20 kts | 83° |
| 2026-05-04 07:51 | 33.93469 | -118.39693 | 105 ft | 20 kts | 83° |
| 2026-05-04 07:51 | 33.93486 | -118.39526 | 105 ft | 20 kts | 82° |
| 2026-05-04 07:52 | 33.93501 | -118.39382 | 105 ft | 11 kts | 84° |
| 2026-05-04 07:52 | 33.93446 | -118.39336 | 104 ft | 12 kts | 185° |
| 2026-05-04 07:52 | 33.93402 | -118.39337 | 101 ft | 5 kts | 179° |
| 2026-05-04 07:52 | 33.93370 | -118.39336 | 101 ft | 2 kts | 179° |
| 2026-05-04 07:53 | 33.93360 | -118.39336 | 102 ft | 1 kts | 179° |
| 2026-05-04 07:54 | 33.93359 | -118.39336 | 102 ft | 0 kts | 179° |